createdAt,value
2023-05-06T00:01:08.876Z,218.30
2023-05-06T00:03:35.964Z,181.43
2023-05-06T00:06:06.375Z,205.95
2023-05-06T00:08:33.070Z,218.73
2023-05-06T00:10:59.599Z,226.43
2023-05-06T00:13:26.152Z,236.55
2023-05-06T00:15:52.776Z,228.07
2023-05-06T00:18:19.265Z,196.80
2023-05-06T00:20:45.692Z,206.88
2023-05-06T00:23:12.099Z,111.55
2023-05-06T00:25:38.465Z,11.18
2023-05-06T00:28:04.852Z,234.82
2023-05-06T00:30:31.628Z,239.00
2023-05-06T00:32:58.309Z,220.73
2023-05-06T00:35:24.718Z,255.02
2023-05-06T00:37:57.317Z,224.75
2023-05-06T00:40:23.767Z,214.95
2023-05-06T00:42:50.285Z,224.90
2023-05-06T00:45:16.729Z,297.58
2023-05-06T00:47:43.275Z,308.05
2023-05-06T00:50:09.911Z,255.88
2023-05-06T00:52:36.646Z,294.08
2023-05-06T00:55:05.032Z,321.40
2023-05-06T00:57:31.517Z,257.48
2023-05-06T01:00:00.711Z,253.57
2023-05-06T01:02:39.545Z,261.65
2023-05-06T01:05:13.476Z,285.60
2023-05-06T01:07:50.663Z,267.42
2023-05-06T01:10:33.324Z,247.05
2023-05-06T01:13:09.129Z,263.60
2023-05-06T01:15:40.955Z,265.42
2023-05-06T01:18:10.066Z,248.77
2023-05-06T01:20:38.212Z,258.50
2023-05-06T01:23:22.483Z,300.95
2023-05-06T01:25:48.798Z,277.90
2023-05-06T01:28:15.132Z,306.00
2023-05-06T01:31:03.702Z,273.17
2023-05-06T01:33:53.103Z,273.45
2023-05-06T01:36:26.150Z,261.73
2023-05-06T01:39:11.692Z,274.88
2023-05-06T01:41:39.255Z,291.23
2023-05-06T01:44:06.986Z,301.20
2023-05-06T01:46:33.298Z,281.50
2023-05-06T01:49:01.624Z,286.55
2023-05-06T01:51:28.005Z,312.77
2023-05-06T01:53:54.748Z,328.63
2023-05-06T01:56:21.726Z,295.25
2023-05-06T01:58:48.102Z,302.50
2023-05-06T02:01:14.460Z,288.00
2023-05-06T02:03:40.903Z,308.92
2023-05-06T02:06:07.466Z,302.77
2023-05-06T02:08:33.791Z,297.13
2023-05-06T02:11:00.197Z,326.70
2023-05-06T02:13:26.504Z,291.13
2023-05-06T02:15:56.132Z,322.45
2023-05-06T02:18:22.582Z,322.98
2023-05-06T02:20:48.906Z,276.38
2023-05-06T02:23:15.526Z,259.67
2023-05-06T02:25:41.840Z,244.85
2023-05-06T02:28:08.154Z,301.17
2023-05-06T02:30:34.870Z,300.98
2023-05-06T02:33:01.307Z,309.83
2023-05-06T02:35:27.682Z,240.80
2023-05-06T02:37:54.008Z,304.38
2023-05-06T02:40:20.441Z,329.92
2023-05-06T02:42:46.812Z,297.48
2023-05-06T02:45:13.231Z,299.42
2023-05-06T02:47:39.572Z,294.27
2023-05-06T02:50:06.312Z,270.60
2023-05-06T02:52:33.404Z,266.08
2023-05-06T02:54:59.765Z,294.25
2023-05-06T02:57:26.360Z,311.42
2023-05-06T02:59:52.740Z,304.88
2023-05-06T03:02:19.061Z,285.88
2023-05-06T03:04:45.441Z,287.90
2023-05-06T03:07:12.576Z,300.45
2023-05-06T03:09:39.400Z,324.30
2023-05-06T03:12:06.199Z,256.45
2023-05-06T03:14:32.620Z,324.55
2023-05-06T03:16:58.990Z,309.65
2023-05-06T03:19:25.703Z,286.52
2023-05-06T03:21:52.035Z,272.42
2023-05-06T03:24:18.382Z,307.55
2023-05-06T03:26:44.738Z,318.33
2023-05-06T03:29:11.442Z,281.55
2023-05-06T03:31:37.826Z,308.35
2023-05-06T03:34:04.169Z,300.05
2023-05-06T03:36:31.680Z,267.90
2023-05-06T03:38:57.994Z,290.52
2023-05-06T03:41:24.529Z,261.73
2023-05-06T03:43:50.949Z,297.17
2023-05-06T03:46:17.281Z,249.98
2023-05-06T03:48:43.592Z,296.15
2023-05-06T03:51:09.967Z,269.52
2023-05-06T03:53:36.527Z,284.55
2023-05-06T03:56:02.824Z,272.55
2023-05-06T03:58:29.152Z,343.73
2023-05-06T04:00:55.548Z,302.75
2023-05-06T04:03:21.902Z,242.80
2023-05-06T04:05:49.137Z,230.27
2023-05-06T04:08:17.088Z,237.23
2023-05-06T04:10:43.474Z,222.68
2023-05-06T04:13:09.790Z,246.30
2023-05-06T04:15:36.495Z,240.63
2023-05-06T04:18:03.536Z,232.75
2023-05-06T04:20:29.910Z,247.00
2023-05-06T04:22:56.196Z,232.65
2023-05-06T04:25:22.807Z,235.45
2023-05-06T04:27:49.090Z,244.40
2023-05-06T04:30:15.408Z,265.98
2023-05-06T04:32:41.773Z,249.85
2023-05-06T04:35:08.791Z,243.02
2023-05-06T04:37:35.423Z,250.05
2023-05-06T04:40:02.413Z,213.85
2023-05-06T04:42:28.732Z,225.82
2023-05-06T04:44:55.109Z,210.40
2023-05-06T04:47:22.055Z,222.85
2023-05-06T04:49:48.572Z,225.65
2023-05-06T04:52:14.879Z,215.40
2023-05-06T04:54:42.134Z,218.80
2023-05-06T04:57:09.296Z,221.90
2023-05-06T04:59:35.656Z,206.80
2023-05-06T05:02:01.977Z,221.60
2023-05-06T05:04:28.277Z,204.90
2023-05-06T05:06:54.589Z,205.73
2023-05-06T05:09:21.407Z,198.98
2023-05-06T05:11:47.694Z,192.73
2023-05-06T05:14:13.993Z,185.70
2023-05-06T05:16:40.359Z,190.45
2023-05-06T05:19:09.020Z,188.43
2023-05-06T05:21:35.866Z,187.23
2023-05-06T05:24:02.175Z,180.70
2023-05-06T05:26:28.474Z,156.73
2023-05-06T05:28:54.765Z,158.15
2023-05-06T05:31:21.123Z,183.85
2023-05-06T05:33:47.529Z,167.40
2023-05-06T05:36:15.336Z,149.73
2023-05-06T05:38:41.812Z,179.02
2023-05-06T05:41:08.130Z,177.45
2023-05-06T05:43:34.697Z,166.27
2023-05-06T05:46:01.070Z,163.38
2023-05-06T05:48:27.620Z,166.55
2023-05-06T05:50:54.327Z,153.65
2023-05-06T05:53:20.905Z,152.35
2023-05-06T05:55:47.233Z,138.15
2023-05-06T05:58:13.680Z,136.35
2023-05-06T06:00:40.046Z,142.88
2023-05-06T06:03:06.530Z,148.25
2023-05-06T06:05:32.889Z,143.40
2023-05-06T06:07:59.986Z,149.93
2023-05-06T06:10:27.444Z,136.00
2023-05-06T06:12:53.839Z,134.07
2023-05-06T06:15:20.494Z,140.35
2023-05-06T06:17:46.828Z,150.30
2023-05-06T06:20:13.433Z,134.48
2023-05-06T06:22:39.728Z,134.45
2023-05-06T06:25:06.271Z,125.03
2023-05-06T06:27:36.585Z,109.03
2023-05-06T06:30:03.783Z,129.50
2023-05-06T06:32:30.164Z,145.75
2023-05-06T06:34:56.469Z,67.25
2023-05-06T06:37:22.768Z,92.85
2023-05-06T06:39:49.088Z,97.47
2023-05-06T06:42:15.391Z,85.63
2023-05-06T06:44:41.714Z,103.68
2023-05-06T06:47:08.063Z,167.85
2023-05-06T06:49:34.355Z,212.63
2023-05-06T06:52:00.756Z,213.57
2023-05-06T06:54:27.124Z,226.23
2023-05-06T06:56:54.116Z,211.68
2023-05-06T06:59:20.484Z,217.68
2023-05-06T07:01:46.836Z,212.77
2023-05-06T07:04:13.240Z,209.32
2023-05-06T07:06:39.583Z,199.45
2023-05-06T07:09:05.895Z,212.68
2023-05-06T07:11:32.221Z,163.15
2023-05-06T07:13:58.534Z,168.90
2023-05-06T07:16:24.888Z,172.30
2023-05-06T07:18:53.728Z,149.45
2023-05-06T07:21:20.054Z,134.55
2023-05-06T07:23:46.361Z,145.32
2023-05-06T07:26:12.691Z,173.07
2023-05-06T07:28:38.980Z,189.23
2023-05-06T07:31:05.468Z,158.85
2023-05-06T07:33:31.779Z,162.93
2023-05-06T07:35:58.109Z,183.98
2023-05-06T07:38:24.483Z,165.68
2023-05-06T07:40:51.311Z,163.82
2023-05-06T07:43:17.680Z,134.18
2023-05-06T07:45:44.097Z,127.85
2023-05-06T07:48:10.534Z,151.68
2023-05-06T07:50:36.919Z,150.45
2023-05-06T07:53:03.985Z,152.80
2023-05-06T07:55:30.467Z,131.18
2023-05-06T07:57:56.835Z,141.80
2023-05-06T08:00:23.330Z,141.35
2023-05-06T08:02:49.775Z,119.72
2023-05-06T08:05:17.282Z,135.02
2023-05-06T08:07:43.846Z,130.52
2023-05-06T08:10:10.335Z,95.03
2023-05-06T08:12:37.660Z,154.35
2023-05-06T08:15:04.208Z,98.20
2023-05-06T08:17:30.523Z,121.55
2023-05-06T08:19:56.860Z,101.72
2023-05-06T08:22:23.153Z,110.22
2023-05-06T08:24:49.443Z,63.13
2023-05-06T08:27:15.864Z,67.45
2023-05-06T08:29:42.159Z,72.57
2023-05-06T08:32:08.608Z,88.43
2023-05-06T08:34:35.126Z,94.03
2023-05-06T08:37:01.934Z,106.80
2023-05-06T08:39:28.819Z,105.35
2023-05-06T08:41:56.074Z,103.70
2023-05-06T08:44:23.784Z,84.88
2023-05-06T08:46:50.157Z,7.10
2023-05-06T08:49:16.545Z,97.63
2023-05-06T08:51:43.806Z,93.78
2023-05-06T08:54:11.404Z,122.22
2023-05-06T08:56:38.858Z,35.65
2023-05-06T08:59:09.028Z,58.47
2023-05-06T09:01:36.092Z,141.18
2023-05-06T09:04:03.929Z,73.47
2023-05-06T09:06:30.246Z,73.25
2023-05-06T09:08:56.621Z,81.97
2023-05-06T09:11:27.823Z,47.25
2023-05-06T09:14:07.816Z,42.53
2023-05-06T09:16:34.350Z,51.17
2023-05-06T09:19:00.710Z,44.80
2023-05-06T09:21:36.726Z,50.65
2023-05-06T09:24:04.023Z,43.38
2023-05-06T09:26:30.914Z,52.63
2023-05-06T09:28:57.917Z,55.80
2023-05-06T09:31:25.615Z,41.88
2023-05-06T09:33:52.819Z,49.15
2023-05-06T09:36:19.545Z,44.72
2023-05-06T09:38:45.931Z,45.72
2023-05-06T09:41:16.641Z,48.78
2023-05-06T09:43:44.762Z,44.33
2023-05-06T09:46:12.511Z,40.20
2023-05-06T09:48:39.360Z,43.58
2023-05-06T09:51:07.610Z,46.90
2023-05-06T09:53:39.776Z,38.78
2023-05-06T09:56:06.930Z,37.10
2023-05-06T09:58:33.943Z,35.90
2023-05-06T10:01:01.255Z,20.38
2023-05-06T10:03:27.848Z,28.35
2023-05-06T10:05:54.809Z,34.42
2023-05-06T10:08:22.153Z,4.20
2023-05-06T10:10:49.370Z,3.60
2023-05-06T10:13:16.556Z,4.18
2023-05-06T10:15:46.271Z,4.05
2023-05-06T10:18:13.136Z,3.35
2023-05-06T10:20:41.253Z,3.47
2023-05-06T10:23:07.519Z,4.18
2023-05-06T10:25:38.350Z,2.88
2023-05-06T10:28:09.498Z,3.45
2023-05-06T10:30:51.844Z,3.55
2023-05-06T10:33:18.199Z,3.95
2023-05-06T10:35:49.168Z,3.00
2023-05-06T10:38:21.869Z,3.60
2023-05-06T10:40:48.567Z,18.73
2023-05-06T10:43:21.130Z,10.60
2023-05-06T10:45:59.763Z,11.55
2023-05-06T10:48:26.152Z,11.73
2023-05-06T10:51:12.401Z,10.15
2023-05-06T10:54:02.449Z,9.95
2023-05-06T10:56:30.314Z,10.38
2023-05-06T10:58:56.871Z,10.15
2023-05-06T11:01:26.276Z,10.40
2023-05-06T11:03:52.915Z,11.55
2023-05-06T11:06:35.595Z,10.35
2023-05-06T11:09:04.317Z,10.68
2023-05-06T11:11:49.124Z,9.50
2023-05-06T11:14:24.249Z,9.90
2023-05-06T11:19:22.769Z,8.27
2023-05-06T11:21:50.654Z,10.68
2023-05-06T11:24:22.663Z,10.02
2023-05-06T11:26:49.627Z,10.75
2023-05-06T11:29:16.653Z,12.00
2023-05-06T11:31:43.664Z,9.60
2023-05-06T11:34:12.715Z,9.93
2023-05-06T11:36:46.493Z,11.00
2023-05-06T11:39:13.029Z,9.77
2023-05-06T11:41:40.758Z,10.70
2023-05-06T11:44:08.395Z,6.35
2023-05-06T11:46:36.194Z,7.25
2023-05-06T11:49:02.580Z,7.70
2023-05-06T11:51:28.957Z,9.55
2023-05-06T11:54:06.914Z,9.40
2023-05-06T11:56:47.031Z,8.57
2023-05-06T11:59:13.541Z,11.02
2023-05-06T12:01:43.463Z,11.30
2023-05-06T12:04:10.474Z,9.50
2023-05-06T12:06:37.603Z,9.10
2023-05-06T12:09:05.207Z,9.73
2023-05-06T12:11:32.883Z,9.70
2023-05-06T12:13:59.298Z,11.63
2023-05-06T12:16:26.946Z,8.57
2023-05-06T12:18:54.341Z,6.68
2023-05-06T12:21:24.398Z,2.90
2023-05-06T12:23:55.028Z,2.67
2023-05-06T12:26:22.167Z,7.95
2023-05-06T12:29:04.380Z,6.78
2023-05-06T12:31:30.712Z,2.13
2023-05-06T12:33:58.087Z,3.15
2023-05-06T12:36:26.422Z,3.20
2023-05-06T12:38:53.811Z,2.90
2023-05-06T12:41:21.238Z,2.63
2023-05-06T12:43:47.760Z,7.68
2023-05-06T12:46:15.394Z,8.98
2023-05-06T12:48:55.330Z,7.53
2023-05-06T12:51:21.912Z,8.68
2023-05-06T12:53:48.215Z,6.00
2023-05-06T12:56:14.507Z,6.70
2023-05-06T12:58:41.066Z,7.13
2023-05-06T13:01:10.381Z,7.80
2023-05-06T13:03:38.836Z,8.57
2023-05-06T13:06:05.443Z,9.27
2023-05-06T13:08:31.734Z,8.77
2023-05-06T13:10:59.637Z,8.70
2023-05-06T13:13:26.075Z,9.48
2023-05-06T13:15:53.009Z,7.43
2023-05-06T13:18:19.297Z,9.70
2023-05-06T13:20:45.981Z,9.57
2023-05-06T13:23:12.294Z,11.68
2023-05-06T13:25:51.750Z,8.60
2023-05-06T13:28:25.212Z,5.78
2023-05-06T13:30:52.077Z,7.68
2023-05-06T13:33:18.595Z,7.55
2023-05-06T13:35:44.886Z,2.15
2023-05-06T13:38:11.172Z,1.77
2023-05-06T13:40:37.492Z,1.98
2023-05-06T13:43:03.831Z,2.05
2023-05-06T13:45:30.130Z,2.10
2023-05-06T13:47:56.478Z,1.90
2023-05-06T13:50:22.800Z,2.72
2023-05-06T13:52:49.134Z,2.25
2023-05-06T13:55:16.450Z,2.10
2023-05-06T13:57:44.151Z,2.28
2023-05-06T14:00:11.883Z,2.50
2023-05-06T14:02:38.204Z,1.85
2023-05-06T14:05:04.792Z,6.38
2023-05-06T14:07:31.227Z,3.30
2023-05-06T14:09:57.674Z,2.05
2023-05-06T14:12:24.583Z,2.10
2023-05-06T14:14:50.885Z,2.20
2023-05-06T14:17:17.197Z,2.42
2023-05-06T14:19:43.504Z,2.00
2023-05-06T14:22:09.836Z,2.33
2023-05-06T14:24:36.221Z,5.28
2023-05-06T14:27:02.560Z,6.07
2023-05-06T14:29:28.935Z,6.30
2023-05-06T14:31:55.302Z,7.70
2023-05-06T14:34:21.619Z,1.92
2023-05-06T14:36:48.005Z,2.35
2023-05-06T14:39:14.312Z,1.92
2023-05-06T14:41:40.666Z,2.30
2023-05-06T14:44:06.949Z,1.98
2023-05-06T14:46:33.233Z,1.73
2023-05-06T14:48:59.528Z,1.48
2023-05-06T14:51:25.885Z,1.65
2023-05-06T14:53:52.196Z,1.55
2023-05-06T14:56:18.566Z,1.80
2023-05-06T14:58:45.478Z,1.58
2023-05-06T15:01:11.820Z,2.10
2023-05-06T15:03:38.145Z,1.83
2023-05-06T15:06:04.697Z,1.60
2023-05-06T15:08:31.481Z,2.13
2023-05-06T15:10:57.781Z,1.90
2023-05-06T15:13:24.122Z,2.38
2023-05-06T15:15:50.838Z,2.08
2023-05-06T15:18:17.163Z,2.17
2023-05-06T15:20:43.506Z,1.98
2023-05-06T15:23:09.803Z,2.00
2023-05-06T15:25:36.855Z,2.13
2023-05-06T15:28:04.168Z,2.20
2023-05-06T15:30:30.595Z,2.10
2023-05-06T15:32:56.984Z,2.70
2023-05-06T15:35:23.326Z,1.65
2023-05-06T15:37:53.346Z,1.80
2023-05-06T15:40:21.472Z,1.98
2023-05-06T15:42:47.763Z,2.50
2023-05-06T15:45:14.104Z,2.20
2023-05-06T15:47:40.863Z,2.40
2023-05-06T15:52:36.669Z,2.92
2023-05-06T15:55:03.107Z,3.10
2023-05-06T15:57:30.176Z,2.33
2023-05-06T15:59:56.875Z,2.67
2023-05-06T16:02:27.201Z,2.70
2023-05-06T16:04:54.565Z,3.75
2023-05-06T16:07:21.129Z,2.70
2023-05-06T16:09:47.539Z,3.17
2023-05-06T16:12:14.715Z,3.28
2023-05-06T16:14:41.007Z,3.03
2023-05-06T16:17:07.435Z,3.20
2023-05-06T16:19:35.066Z,3.97
2023-05-06T16:22:01.892Z,4.05
2023-05-06T16:24:28.194Z,4.18
2023-05-06T16:26:54.969Z,44.25
2023-05-06T16:29:21.300Z,99.22
2023-05-06T16:31:48.177Z,119.20
2023-05-06T16:34:15.060Z,153.60
2023-05-06T16:36:41.410Z,168.15
2023-05-06T16:39:07.965Z,172.13
2023-05-06T16:41:34.439Z,165.98
2023-05-06T16:44:01.600Z,165.45
2023-05-06T16:46:28.907Z,180.20
2023-05-06T16:48:55.873Z,205.98
2023-05-06T16:51:22.300Z,165.70
2023-05-06T16:53:48.895Z,199.65
2023-05-06T16:56:15.204Z,205.13
2023-05-06T16:58:42.577Z,184.07
2023-05-06T17:01:09.134Z,197.05
2023-05-06T17:03:38.419Z,197.15
2023-05-06T17:06:05.133Z,190.20
2023-05-06T17:08:36.158Z,213.15
2023-05-06T17:11:05.267Z,194.57
2023-05-06T17:13:31.652Z,213.93
2023-05-06T17:15:57.949Z,213.95
2023-05-06T17:18:24.527Z,244.98
2023-05-06T17:20:56.483Z,246.30
2023-05-06T17:23:23.760Z,207.32
2023-05-06T17:25:50.941Z,228.45
2023-05-06T17:28:18.703Z,273.23
2023-05-06T17:30:45.415Z,196.30
2023-05-06T17:33:11.780Z,217.35
2023-05-06T17:35:38.246Z,224.50
2023-05-06T17:38:04.588Z,228.10
2023-05-06T17:40:32.062Z,219.63
2023-05-06T17:42:58.475Z,202.90
2023-05-06T17:45:25.412Z,192.60
2023-05-06T17:47:51.776Z,216.93
2023-05-06T17:50:18.129Z,191.65
2023-05-06T17:52:48.891Z,204.57
2023-05-06T17:55:17.393Z,207.40
2023-05-06T17:57:44.260Z,227.07
2023-05-06T18:00:11.369Z,224.82
2023-05-06T18:02:37.825Z,209.48
2023-05-06T18:05:04.409Z,222.85
2023-05-06T18:07:30.715Z,251.30
2023-05-06T18:09:57.098Z,258.05
2023-05-06T18:12:23.898Z,236.93
2023-05-06T18:14:50.309Z,240.15
2023-05-06T18:17:16.605Z,241.75
2023-05-06T18:19:42.893Z,225.93
2023-05-06T18:22:09.237Z,228.80
2023-05-06T18:24:37.150Z,254.48
2023-05-06T18:27:03.679Z,219.95
2023-05-06T18:29:32.380Z,225.82
2023-05-06T18:31:59.103Z,228.70
2023-05-06T18:34:25.463Z,249.18
2023-05-06T18:36:51.770Z,244.32
2023-05-06T18:39:18.082Z,257.35
2023-05-06T18:41:44.447Z,248.07
2023-05-06T18:44:10.934Z,241.60
2023-05-06T18:46:37.242Z,207.68
2023-05-06T18:49:03.572Z,242.68
2023-05-06T18:51:29.948Z,245.13
2023-05-06T18:53:56.295Z,233.70
2023-05-06T18:56:22.643Z,244.00
2023-05-06T18:58:49.012Z,246.98
2023-05-06T19:01:15.973Z,250.40
2023-05-06T19:03:42.905Z,225.30
2023-05-06T19:06:09.392Z,239.63
2023-05-06T19:08:38.931Z,221.35
2023-05-06T19:11:05.544Z,228.25
2023-05-06T19:13:31.921Z,247.55
2023-05-06T19:15:58.410Z,239.35
2023-05-06T19:18:24.750Z,247.35
2023-05-06T19:20:51.688Z,256.30
2023-05-06T19:23:19.965Z,233.98
2023-05-06T19:25:46.536Z,159.07
2023-05-06T19:28:12.921Z,157.18
2023-05-06T19:30:39.374Z,162.27
2023-05-06T19:33:05.839Z,165.50
2023-05-06T19:35:32.250Z,174.63
2023-05-06T19:37:58.831Z,157.50
2023-05-06T19:40:25.270Z,162.98
2023-05-06T19:42:52.152Z,167.23
2023-05-06T19:45:19.406Z,159.68
2023-05-06T19:47:46.562Z,139.93
2023-05-06T19:50:13.359Z,155.80
2023-05-06T19:55:06.594Z,152.90
2023-05-06T19:57:33.871Z,150.68
2023-05-06T20:00:00.439Z,173.02
2023-05-06T20:02:26.881Z,176.07
2023-05-06T20:04:53.263Z,163.02
2023-05-06T20:07:20.972Z,149.82
2023-05-06T20:09:47.520Z,143.02
2023-05-06T20:12:13.884Z,175.30
2023-05-06T20:14:40.316Z,166.25
2023-05-06T20:17:06.631Z,150.95
2023-05-06T20:19:33.033Z,146.95
2023-05-06T20:22:00.347Z,149.15
2023-05-06T20:24:29.295Z,152.93
2023-05-06T20:26:59.001Z,161.93
2023-05-06T20:29:26.156Z,161.90
2023-05-06T20:31:52.520Z,139.40
2023-05-06T20:34:19.078Z,149.57
2023-05-06T20:36:45.790Z,151.50
2023-05-06T20:39:12.265Z,141.43
2023-05-06T20:41:38.685Z,146.88
2023-05-06T20:44:04.993Z,154.13
2023-05-06T20:46:32.886Z,149.05
2023-05-06T20:48:59.334Z,142.93
2023-05-06T20:51:26.231Z,128.18
2023-05-06T20:53:52.599Z,137.05
2023-05-06T20:56:24.774Z,134.70
2023-05-06T20:58:51.526Z,138.55
2023-05-06T21:01:18.280Z,144.85
2023-05-06T21:03:46.310Z,134.88
2023-05-06T21:06:13.436Z,152.32
2023-05-06T21:08:39.738Z,135.38
2023-05-06T21:11:06.069Z,137.77
2023-05-06T21:13:32.398Z,132.40
2023-05-06T21:15:58.700Z,144.57
2023-05-06T21:18:25.103Z,162.05
2023-05-06T21:20:51.525Z,140.20
2023-05-06T21:23:19.007Z,141.82
2023-05-06T21:25:45.560Z,173.63
2023-05-06T21:28:11.857Z,164.07
2023-05-06T21:30:38.222Z,154.90
2023-05-06T21:33:06.304Z,146.68
2023-05-06T21:35:32.625Z,153.35
2023-05-06T21:37:58.929Z,145.90
2023-05-06T21:40:25.239Z,162.10
2023-05-06T21:42:51.823Z,171.95
2023-05-06T21:45:18.507Z,168.48
2023-05-06T21:47:45.530Z,162.00
2023-05-06T21:50:12.221Z,151.30
2023-05-06T21:52:39.082Z,139.73
2023-05-06T21:55:05.694Z,145.68
2023-05-06T21:57:32.738Z,133.02
2023-05-06T22:00:00.092Z,137.55
2023-05-06T22:02:26.610Z,137.63
2023-05-06T22:04:53.009Z,148.93
2023-05-06T22:07:19.322Z,34.03
2023-05-06T22:09:45.629Z,88.55
2023-05-06T22:12:12.827Z,239.52
2023-05-06T22:14:41.441Z,253.63
2023-05-06T22:17:08.149Z,242.90
2023-05-06T22:19:34.462Z,243.35
2023-05-06T22:22:01.189Z,215.52
2023-05-06T22:24:27.605Z,242.15
2023-05-06T22:26:54.020Z,213.15
2023-05-06T22:29:20.378Z,255.93
2023-05-06T22:31:46.689Z,259.98
2023-05-06T22:34:13.029Z,258.15
2023-05-06T22:36:39.334Z,250.80
2023-05-06T22:39:05.660Z,226.48
2023-05-06T22:41:31.960Z,212.38
2023-05-06T22:43:59.432Z,219.07
2023-05-06T22:46:26.008Z,233.80
2023-05-06T22:48:52.354Z,243.77
2023-05-06T22:51:20.088Z,236.13
2023-05-06T22:53:46.665Z,242.90
2023-05-06T22:56:13.113Z,238.85
2023-05-06T22:58:39.413Z,247.30
2023-05-06T23:01:07.298Z,222.15
2023-05-06T23:03:33.762Z,233.65
2023-05-06T23:06:00.163Z,250.32
2023-05-06T23:08:26.519Z,242.93
2023-05-06T23:10:52.831Z,215.27
2023-05-06T23:13:19.153Z,234.57
2023-05-06T23:15:45.518Z,227.10
2023-05-06T23:18:11.869Z,239.02
2023-05-06T23:20:38.253Z,242.27
2023-05-06T23:23:04.616Z,242.48
2023-05-06T23:25:30.915Z,215.93
2023-05-06T23:27:57.227Z,226.70
2023-05-06T23:30:23.589Z,240.18
2023-05-06T23:32:50.114Z,242.68
2023-05-06T23:35:16.486Z,242.13
2023-05-06T23:37:42.793Z,239.27
2023-05-06T23:40:09.419Z,217.90
2023-05-06T23:42:36.053Z,217.57
2023-05-06T23:45:02.470Z,241.73
2023-05-06T23:47:28.825Z,223.73
2023-05-06T23:49:55.135Z,238.98
2023-05-06T23:52:21.437Z,233.40
2023-05-06T23:54:47.749Z,235.77
2023-05-06T23:57:14.036Z,233.73
2023-05-06T23:59:40.378Z,219.68
